X  Schlie├čen METAR Luftfahrt Wetterdaten     EHGG Eelde Airport
Temperatur
8°C Temperatur
6°C Taupunkt
87% Feuchtigkeit



Wind
14 KM/S
9 MPS
4 M/S
8 KTS



270°
W
Aktuelle Wetterlage

Meistens vereinzelte Wolken Meistens vereinzelte Wolken
Luftdruck 1002.92 (hPa) - 29.62 (inHg)
Sichtweite 6.2 (Meile) - 10 (Km)
Flughafen
Flughafen Code EHGG

Position : Eelde Airport
Entfernung: 40 (Km)

Metar:
EHGG 252225Z AUTO 27008KT 240V300 9999 SCT012 BKN015 OVC032 08/06 Q1003

Zeit: 25-03-2023 22:25 CEST